sensor_id;sensor_type;location;lat;lon;timestamp;pressure;altitude;pressure_sealevel;temperature
50206;BMP280;36098;48.390;10.856;2022-10-13T00:00:59;96607.69;;;23.57
50206;BMP280;36098;48.390;10.856;2022-10-13T00:03:24;96615.03;;;23.55
50206;BMP280;36098;48.390;10.856;2022-10-13T00:05:50;96607.41;;;23.54
50206;BMP280;36098;48.390;10.856;2022-10-13T00:08:19;96614.75;;;23.47
50206;BMP280;36098;48.390;10.856;2022-10-13T00:10:47;96612.13;;;23.47
50206;BMP280;36098;48.390;10.856;2022-10-13T00:13:13;96617.66;;;23.45
50206;BMP280;36098;48.390;10.856;2022-10-13T00:15:40;96620.03;;;23.47
50206;BMP280;36098;48.390;10.856;2022-10-13T00:18:06;96617.13;;;23.48
50206;BMP280;36098;48.390;10.856;2022-10-13T00:20:32;96622.38;;;23.43
50206;BMP280;36098;48.390;10.856;2022-10-13T00:22:58;96623.69;;;23.46
50206;BMP280;36098;48.390;10.856;2022-10-13T00:25:23;96624.50;;;23.41
50206;BMP280;36098;48.390;10.856;2022-10-13T00:27:48;96623.97;;;23.49
50206;BMP280;36098;48.390;10.856;2022-10-13T00:30:14;96624.22;;;23.43
50206;BMP280;36098;48.390;10.856;2022-10-13T00:32:39;96622.69;;;23.47
50206;BMP280;36098;48.390;10.856;2022-10-13T00:35:04;96621.84;;;23.41
50206;BMP280;36098;48.390;10.856;2022-10-13T00:37:30;96626.31;;;23.41
50206;BMP280;36098;48.390;10.856;2022-10-13T00:39:55;96626.31;;;23.36
50206;BMP280;36098;48.390;10.856;2022-10-13T00:42:20;96628.66;;;23.32
50206;BMP280;36098;48.390;10.856;2022-10-13T00:45:19;96627.59;;;23.33
50206;BMP280;36098;48.390;10.856;2022-10-13T00:47:48;96629.97;;;23.30
50206;BMP280;36098;48.390;10.856;2022-10-13T00:50:19;96629.72;;;23.31
50206;BMP280;36098;48.390;10.856;2022-10-13T00:52:46;96624.97;;;23.33
50206;BMP280;36098;48.390;10.856;2022-10-13T00:55:16;96631.81;;;23.34
50206;BMP280;36098;48.390;10.856;2022-10-13T00:57:43;96627.09;;;23.36
50206;BMP280;36098;48.390;10.856;2022-10-13T01:00:10;96626.06;;;23.42
50206;BMP280;36098;48.390;10.856;2022-10-13T01:02:36;96621.03;;;23.31
50206;BMP280;36098;48.390;10.856;2022-10-13T01:05:05;96618.34;;;23.26
50206;BMP280;36098;48.390;10.856;2022-10-13T01:07:30;96617.06;;;23.33
50206;BMP280;36098;48.390;10.856;2022-10-13T01:09:57;96624.19;;;23.33
50206;BMP280;36098;48.390;10.856;2022-10-13T01:12:51;96617.56;;;23.26
50206;BMP280;36098;48.390;10.856;2022-10-13T01:18:08;96629.41;;;23.23
50206;BMP280;36098;48.390;10.856;2022-10-13T01:21:50;96614.41;;;23.24
50206;BMP280;36098;48.390;10.856;2022-10-13T01:35:18;96619.16;;;23.31
50206;BMP280;36098;48.390;10.856;2022-10-13T01:37:48;96623.13;;;23.29
50206;BMP280;36098;48.390;10.856;2022-10-13T01:40:37;96619.69;;;23.28
50206;BMP280;36098;48.390;10.856;2022-10-13T01:43:09;96620.22;;;23.30
50206;BMP280;36098;48.390;10.856;2022-10-13T01:45:41;96609.69;;;23.30
50206;BMP280;36098;48.390;10.856;2022-10-13T01:48:07;96613.38;;;23.29
50206;BMP280;36098;48.390;10.856;2022-10-13T01:50:35;96610.72;;;23.25
50206;BMP280;36098;48.390;10.856;2022-10-13T01:53:03;96614.94;;;23.26
50206;BMP280;36098;48.390;10.856;2022-10-13T01:55:29;96610.72;;;23.20
50206;BMP280;36098;48.390;10.856;2022-10-13T01:57:55;96606.44;;;23.14
50206;BMP280;36098;48.390;10.856;2022-10-13T02:00:21;96596.94;;;23.13
50206;BMP280;36098;48.390;10.856;2022-10-13T02:10:52;96595.66;;;23.20
50206;BMP280;36098;48.390;10.856;2022-10-13T02:13:22;96590.34;;;23.10
50206;BMP280;36098;48.390;10.856;2022-10-13T02:15:56;96600.94;;;23.15
50206;BMP280;36098;48.390;10.856;2022-10-13T02:18:26;96593.84;;;23.21
50206;BMP280;36098;48.390;10.856;2022-10-13T02:20:53;96593.28;;;23.14
50206;BMP280;36098;48.390;10.856;2022-10-13T02:23:19;96590.34;;;23.10
50206;BMP280;36098;48.390;10.856;2022-10-13T02:25:46;96598.53;;;23.14
50206;BMP280;36098;48.390;10.856;2022-10-13T02:28:13;96589.00;;;23.08
50206;BMP280;36098;48.390;10.856;2022-10-13T02:30:39;96588.19;;;23.07
50206;BMP280;36098;48.390;10.856;2022-10-13T02:33:06;96592.75;;;23.12
50206;BMP280;36098;48.390;10.856;2022-10-13T02:35:32;96583.03;;;23.17
50206;BMP280;36098;48.390;10.856;2022-10-13T02:37:58;96586.88;;;23.05
50206;BMP280;36098;48.390;10.856;2022-10-13T02:40:25;96588.50;;;23.11
50206;BMP280;36098;48.390;10.856;2022-10-13T02:42:50;96577.91;;;23.01
50206;BMP280;36098;48.390;10.856;2022-10-13T02:45:15;96572.91;;;23.04
50206;BMP280;36098;48.390;10.856;2022-10-13T02:47:41;96573.25;;;23.13
50206;BMP280;36098;48.390;10.856;2022-10-13T02:50:06;96574.78;;;23.09
50206;BMP280;36098;48.390;10.856;2022-10-13T02:52:32;96577.91;;;23.01
50206;BMP280;36098;48.390;10.856;2022-10-13T02:54:57;96575.28;;;23.01
50206;BMP280;36098;48.390;10.856;2022-10-13T02:57:22;96575.28;;;23.01
50206;BMP280;36098;48.390;10.856;2022-10-13T02:59:47;96577.88;;;22.96
50206;BMP280;36098;48.390;10.856;2022-10-13T03:02:13;96582.34;;;22.90
50206;BMP280;36098;48.390;10.856;2022-10-13T03:04:38;96573.66;;;22.95
50206;BMP280;36098;48.390;10.856;2022-10-13T03:07:03;96587.63;;;22.90
50206;BMP280;36098;48.390;10.856;2022-10-13T03:09:29;96591.84;;;22.91
50206;BMP280;36098;48.390;10.856;2022-10-13T03:11:54;96594.19;;;22.93
50206;BMP280;36098;48.390;10.856;2022-10-13T03:14:19;96587.09;;;22.93
50206;BMP280;36098;48.390;10.856;2022-10-13T03:16:45;96589.72;;;22.93
50206;BMP280;36098;48.390;10.856;2022-10-13T03:19:10;96590.00;;;22.97
50206;BMP280;36098;48.390;10.856;2022-10-13T03:21:37;96591.56;;;22.93
50206;BMP280;36098;48.390;10.856;2022-10-13T03:24:02;96597.63;;;22.93
50206;BMP280;36098;48.390;10.856;2022-10-13T03:26:30;96593.66;;;22.91
50206;BMP280;36098;48.390;10.856;2022-10-13T03:28:55;96593.13;;;22.89
50206;BMP280;36098;48.390;10.856;2022-10-13T03:31:21;96592.06;;;22.85
50206;BMP280;36098;48.390;10.856;2022-10-13T03:33:46;96592.88;;;22.90
50206;BMP280;36098;48.390;10.856;2022-10-13T03:36:12;96596.28;;;22.91
50206;BMP280;36098;48.390;10.856;2022-10-13T03:38:38;96594.47;;;22.91
50206;BMP280;36098;48.390;10.856;2022-10-13T03:41:08;96602.88;;;22.88
50206;BMP280;36098;48.390;10.856;2022-10-13T03:43:34;96599.97;;;22.90
50206;BMP280;36098;48.390;10.856;2022-10-13T03:46:00;96597.34;;;22.90
50206;BMP280;36098;48.390;10.856;2022-10-13T03:48:27;96600.50;;;22.92
50206;BMP280;36098;48.390;10.856;2022-10-13T03:50:52;96582.88;;;22.92
50206;BMP280;36098;48.390;10.856;2022-10-13T03:53:18;96593.41;;;22.92
50206;BMP280;36098;48.390;10.856;2022-10-13T03:55:54;96601.03;;;22.89
50206;BMP280;36098;48.390;10.856;2022-10-13T03:58:21;96602.09;;;22.93
50206;BMP280;36098;48.390;10.856;2022-10-13T04:00:48;96604.41;;;22.84
50206;BMP280;36098;48.390;10.856;2022-10-13T04:03:13;96597.84;;;22.82
50206;BMP280;36098;48.390;10.856;2022-10-13T04:05:39;96606.00;;;22.85
50206;BMP280;36098;48.390;10.856;2022-10-13T04:08:05;96601.00;;;22.84
50206;BMP280;36098;48.390;10.856;2022-10-13T04:10:30;96603.13;;;22.87
50206;BMP280;36098;48.390;10.856;2022-10-13T04:12:55;96594.72;;;22.90
50206;BMP280;36098;48.390;10.856;2022-10-13T04:15:21;96605.25;;;22.90
50206;BMP280;36098;48.390;10.856;2022-10-13T04:17:46;96598.88;;;22.81
50206;BMP280;36098;48.390;10.856;2022-10-13T04:20:11;96595.97;;;22.82
50206;BMP280;36098;48.390;10.856;2022-10-13T04:22:37;96598.88;;;22.81
50206;BMP280;36098;48.390;10.856;2022-10-13T04:25:03;96594.69;;;22.85
50206;BMP280;36098;48.390;10.856;2022-10-13T04:27:29;96594.19;;;22.88
50206;BMP280;36098;48.390;10.856;2022-10-13T04:29:55;96592.53;;;22.77
50206;BMP280;36098;48.390;10.856;2022-10-13T04:32:20;96591.53;;;22.88
50206;BMP280;36098;48.390;10.856;2022-10-13T04:34:46;96587.31;;;22.82
50206;BMP280;36098;48.390;10.856;2022-10-13T04:37:11;96584.94;;;22.85
50206;BMP280;36098;48.390;10.856;2022-10-13T04:39:36;96585.75;;;22.86
50206;BMP280;36098;48.390;10.856;2022-10-13T04:42:02;96590.78;;;22.92
50206;BMP280;36098;48.390;10.856;2022-10-13T04:44:27;96594.19;;;22.93
50206;BMP280;36098;48.390;10.856;2022-10-13T04:46:53;96578.13;;;22.89
50206;BMP280;36098;48.390;10.856;2022-10-13T04:49:18;96579.66;;;22.80
50206;BMP280;36098;48.390;10.856;2022-10-13T04:51:43;96582.06;;;22.87
50206;BMP280;36098;48.390;10.856;2022-10-13T04:54:09;96575.97;;;22.81
50206;BMP280;36098;48.390;10.856;2022-10-13T04:56:35;96562.56;;;22.88
50206;BMP280;36098;48.390;10.856;2022-10-13T04:59:00;96568.81;;;22.77
50206;BMP280;36098;48.390;10.856;2022-10-13T05:01:26;96566.78;;;22.89
50206;BMP280;36098;48.390;10.856;2022-10-13T05:03:53;96567.66;;;22.58
50206;BMP280;36098;48.390;10.856;2022-10-13T05:06:22;96567.63;;;22.53
50206;BMP280;36098;48.390;10.856;2022-10-13T05:08:47;96560.81;;;22.57
50206;BMP280;36098;48.390;10.856;2022-10-13T05:11:14;96569.34;;;22.74
50206;BMP280;36098;48.390;10.856;2022-10-13T05:13:39;96566.06;;;22.57
50206;BMP280;36098;48.390;10.856;2022-10-13T05:16:06;96562.09;;;22.49
50206;BMP280;36098;48.390;10.856;2022-10-13T05:18:32;96566.03;;;22.47
50206;BMP280;36098;48.390;10.856;2022-10-13T05:21:08;96565.81;;;22.53
50206;BMP280;36098;48.390;10.856;2022-10-13T05:23:33;96570.63;;;22.35
50206;BMP280;36098;48.390;10.856;2022-10-13T05:26:04;96565.22;;;22.46
50206;BMP280;36098;48.390;10.856;2022-10-13T05:28:29;96572.19;;;22.67
50206;BMP280;36098;48.390;10.856;2022-10-13T05:30:55;96550.97;;;22.79
50206;BMP280;36098;48.390;10.856;2022-10-13T05:33:20;96558.06;;;22.78
50206;BMP280;36098;48.390;10.856;2022-10-13T05:35:45;96561.44;;;22.74
50206;BMP280;36098;48.390;10.856;2022-10-13T05:38:11;96562.41;;;22.58
50206;BMP280;36098;48.390;10.856;2022-10-13T05:40:36;96564.59;;;22.76
50206;BMP280;36098;48.390;10.856;2022-10-13T05:43:03;96556.78;;;22.86
50206;BMP280;36098;48.390;10.856;2022-10-13T05:45:31;96562.34;;;22.94
50206;BMP280;36098;48.390;10.856;2022-10-13T05:47:56;96556.81;;;22.96
50206;BMP280;36098;48.390;10.856;2022-10-13T05:50:22;96550.25;;;22.98
50206;BMP280;36098;48.390;10.856;2022-10-13T05:52:47;96553.63;;;22.89
50206;BMP280;36098;48.390;10.856;2022-10-13T05:55:14;96553.69;;;22.99
50206;BMP280;36098;48.390;10.856;2022-10-13T05:57:42;96553.69;;;22.99
50206;BMP280;36098;48.390;10.856;2022-10-13T06:00:16;96549.97;;;22.95
50206;BMP280;36098;48.390;10.856;2022-10-13T06:02:47;96553.38;;;22.90
50206;BMP280;36098;48.390;10.856;2022-10-13T06:05:16;96558.06;;;22.78
50206;BMP280;36098;48.390;10.856;2022-10-13T06:07:43;96559.63;;;22.79
50206;BMP280;36098;48.390;10.856;2022-10-13T06:10:10;96559.88;;;22.78
50206;BMP280;36098;48.390;10.856;2022-10-13T06:12:36;96558.06;;;22.83
50206;BMP280;36098;48.390;10.856;2022-10-13T06:15:02;96561.00;;;22.87
50206;BMP280;36098;48.390;10.856;2022-10-13T06:17:27;96561.53;;;22.89
50206;BMP280;36098;48.390;10.856;2022-10-13T06:19:53;96554.91;;;22.81
50206;BMP280;36098;48.390;10.856;2022-10-13T06:22:18;96559.63;;;22.79
50206;BMP280;36098;48.390;10.856;2022-10-13T06:24:43;96563.84;;;22.75
50206;BMP280;36098;48.390;10.856;2022-10-13T06:27:09;96569.31;;;22.69
50206;BMP280;36098;48.390;10.856;2022-10-13T06:29:35;96567.50;;;22.74
50206;BMP280;36098;48.390;10.856;2022-10-13T06:32:00;96573.03;;;22.78
50206;BMP280;36098;48.390;10.856;2022-10-13T06:34:25;96564.69;;;22.86
50206;BMP280;36098;48.390;10.856;2022-10-13T06:36:51;96572.56;;;22.81
50206;BMP280;36098;48.390;10.856;2022-10-13T06:39:16;96574.09;;;22.77
50206;BMP280;36098;48.390;10.856;2022-10-13T06:41:42;96571.09;;;22.58
50206;BMP280;36098;48.390;10.856;2022-10-13T06:44:07;96579.31;;;22.67
50206;BMP280;36098;48.390;10.856;2022-10-13T06:46:32;96572.03;;;22.84
50206;BMP280;36098;48.390;10.856;2022-10-13T06:48:58;96574.66;;;22.79
50206;BMP280;36098;48.390;10.856;2022-10-13T06:51:23;96553.59;;;22.84
50206;BMP280;36098;48.390;10.856;2022-10-13T06:53:48;96573.84;;;22.78
50206;BMP280;36098;48.390;10.856;2022-10-13T06:56:14;96563.28;;;22.68
50206;BMP280;36098;48.390;10.856;2022-10-13T06:58:39;96564.00;;;22.59
50206;BMP280;36098;48.390;10.856;2022-10-13T07:01:05;96571.19;;;22.68
50206;BMP280;36098;48.390;10.856;2022-10-13T07:03:31;96564.56;;;22.66
50206;BMP280;36098;48.390;10.856;2022-10-13T07:06:00;96569.00;;;22.60
50206;BMP280;36098;48.390;10.856;2022-10-13T07:08:26;96569.84;;;22.66
50206;BMP280;36098;48.390;10.856;2022-10-13T07:10:51;96568.78;;;22.67
50206;BMP280;36098;48.390;10.856;2022-10-13T07:13:16;96564.28;;;22.67
50206;BMP280;36098;48.390;10.856;2022-10-13T07:15:42;96565.63;;;22.65
50206;BMP280;36098;48.390;10.856;2022-10-13T07:18:07;96560.25;;;22.50
50206;BMP280;36098;48.390;10.856;2022-10-13T07:20:33;96559.19;;;22.46
50206;BMP280;36098;48.390;10.856;2022-10-13T07:22:58;96561.78;;;22.41
50206;BMP280;36098;48.390;10.856;2022-10-13T07:25:24;96557.31;;;22.41
50206;BMP280;36098;48.390;10.856;2022-10-13T07:27:49;96558.34;;;22.40
50206;BMP280;36098;48.390;10.856;2022-10-13T07:30:15;96555.56;;;22.57
50206;BMP280;36098;48.390;10.856;2022-10-13T07:32:40;96558.75;;;22.59
50206;BMP280;36098;48.390;10.856;2022-10-13T07:35:08;96563.41;;;22.47
50206;BMP280;36098;48.390;10.856;2022-10-13T07:37:34;96558.16;;;22.52
50206;BMP280;36098;48.390;10.856;2022-10-13T07:39:59;96559.22;;;22.56
50206;BMP280;36098;48.390;10.856;2022-10-13T07:42:25;96556.19;;;22.37
50206;BMP280;36098;48.390;10.856;2022-10-13T07:44:51;96557.22;;;22.31
50206;BMP280;36098;48.390;10.856;2022-10-13T07:47:16;96557.88;;;22.48
50206;BMP280;36098;48.390;10.856;2022-10-13T07:49:41;96551.06;;;22.52
50206;BMP280;36098;48.390;10.856;2022-10-13T07:52:06;96561.63;;;22.57
50206;BMP280;36098;48.390;10.856;2022-10-13T07:54:32;96561.91;;;22.61
50206;BMP280;36098;48.390;10.856;2022-10-13T07:56:57;96567.72;;;22.63
50206;BMP280;36098;48.390;10.856;2022-10-13T07:59:23;96567.19;;;22.66
50206;BMP280;36098;48.390;10.856;2022-10-13T08:01:48;96555.31;;;22.58
50206;BMP280;36098;48.390;10.856;2022-10-13T08:04:13;96556.34;;;22.57
50206;BMP280;36098;48.390;10.856;2022-10-13T08:06:39;96556.34;;;22.57
50206;BMP280;36098;48.390;10.856;2022-10-13T08:09:05;96556.91;;;22.64
50206;BMP280;36098;48.390;10.856;2022-10-13T08:11:31;96560.81;;;22.57
50206;BMP280;36098;48.390;10.856;2022-10-13T08:13:56;96571.94;;;22.64
50206;BMP280;36098;48.390;10.856;2022-10-13T08:16:28;96558.78;;;22.69
50206;BMP280;36098;48.390;10.856;2022-10-13T08:18:55;96555.56;;;22.57
50206;BMP280;36098;48.390;10.856;2022-10-13T08:21:21;96551.84;;;22.53
50206;BMP280;36098;48.390;10.856;2022-10-13T08:23:47;96555.22;;;22.48
50206;BMP280;36098;48.390;10.856;2022-10-13T08:26:21;96541.84;;;22.50
50206;BMP280;36098;48.390;10.856;2022-10-13T08:28:48;96555.50;;;22.47
50206;BMP280;36098;48.390;10.856;2022-10-13T08:31:14;96545.19;;;22.40
50206;BMP280;36098;48.390;10.856;2022-10-13T08:33:39;96546.06;;;22.56
50206;BMP280;36098;48.390;10.856;2022-10-13T08:36:06;96551.13;;;22.67
50206;BMP280;36098;48.390;10.856;2022-10-13T08:38:31;96541.41;;;22.68
50206;BMP280;36098;48.390;10.856;2022-10-13T08:40:56;96546.38;;;22.64
50206;BMP280;36098;48.390;10.856;2022-10-13T08:43:23;96537.91;;;22.52
50206;BMP280;36098;48.390;10.856;2022-10-13T08:45:49;96544.88;;;22.37
50206;BMP280;36098;48.390;10.856;2022-10-13T08:48:21;96543.91;;;22.43
50206;BMP280;36098;48.390;10.856;2022-10-13T08:50:50;96529.81;;;22.64
50206;BMP280;36098;48.390;10.856;2022-10-13T08:55:55;96535.31;;;22.62
50206;BMP280;36098;48.390;10.856;2022-10-13T08:58:25;96541.84;;;22.55
50206;BMP280;36098;48.390;10.856;2022-10-13T09:03:57;96535.09;;;22.69
50206;BMP280;36098;48.390;10.856;2022-10-13T09:06:29;96532.78;;;22.77
50206;BMP280;36098;48.390;10.856;2022-10-13T09:09:02;96535.72;;;22.91
50206;BMP280;36098;48.390;10.856;2022-10-13T09:11:32;96537.06;;;22.93
50206;BMP280;36098;48.390;10.856;2022-10-13T09:14:02;96536.25;;;22.88
50206;BMP280;36098;48.390;10.856;2022-10-13T09:16:28;96527.56;;;22.92
50206;BMP280;36098;48.390;10.856;2022-10-13T09:19:24;96529.94;;;22.94
50206;BMP280;36098;48.390;10.856;2022-10-13T09:21:52;96522.53;;;22.86
50206;BMP280;36098;48.390;10.856;2022-10-13T09:24:19;96519.69;;;22.92
50206;BMP280;36098;48.390;10.856;2022-10-13T09:26:46;96515.97;;;22.88
50206;BMP280;36098;48.390;10.856;2022-10-13T09:29:25;96522.06;;;22.99
50206;BMP280;36098;48.390;10.856;2022-10-13T09:31:53;96524.41;;;22.90
50206;BMP280;36098;48.390;10.856;2022-10-13T09:34:31;96523.91;;;22.98
50206;BMP280;36098;48.390;10.856;2022-10-13T09:37:19;96520.97;;;22.95
50206;BMP280;36098;48.390;10.856;2022-10-13T09:39:45;96519.97;;;23.01
50206;BMP280;36098;48.390;10.856;2022-10-13T09:42:25;96522.06;;;22.99
50206;BMP280;36098;48.390;10.856;2022-10-13T09:45:01;96514.13;;;22.84
50206;BMP280;36098;48.390;10.856;2022-10-13T09:47:33;96514.28;;;22.67
50206;BMP280;36098;48.390;10.856;2022-10-13T09:50:19;96510.06;;;22.66
50206;BMP280;36098;48.390;10.856;2022-10-13T09:52:47;96508.34;;;22.92
50206;BMP280;36098;48.390;10.856;2022-10-13T09:57:53;96514.13;;;22.84
50206;BMP280;36098;48.390;10.856;2022-10-13T10:00:25;96513.06;;;22.90
50206;BMP280;36098;48.390;10.856;2022-10-13T10:03:23;96506.28;;;22.99
50206;BMP280;36098;48.390;10.856;2022-10-13T10:05:52;96503.66;;;23.04
50206;BMP280;36098;48.390;10.856;2022-10-13T10:08:30;96507.31;;;22.98
50206;BMP280;36098;48.390;10.856;2022-10-13T10:11:04;96495.19;;;22.97
50206;BMP280;36098;48.390;10.856;2022-10-13T10:13:33;96503.34;;;22.90
50206;BMP280;36098;48.390;10.856;2022-10-13T10:16:06;96499.16;;;22.99
50206;BMP280;36098;48.390;10.856;2022-10-13T10:18:52;96499.91;;;22.95
50206;BMP280;36098;48.390;10.856;2022-10-13T10:26:59;96498.47;;;22.67
50206;BMP280;36098;48.390;10.856;2022-10-13T10:32:11;96489.00;;;22.66
50206;BMP280;36098;48.390;10.856;2022-10-13T10:35:00;96496.91;;;22.66
50206;BMP280;36098;48.390;10.856;2022-10-13T10:37:34;96493.78;;;22.69
50206;BMP280;36098;48.390;10.856;2022-10-13T10:40:20;96496.72;;;22.83
50206;BMP280;36098;48.390;10.856;2022-10-13T10:45:36;96500.34;;;22.72
50206;BMP280;36098;48.390;10.856;2022-10-13T10:48:15;96491.16;;;22.69
50206;BMP280;36098;48.390;10.856;2022-10-13T10:50:42;96479.28;;;22.72
50206;BMP280;36098;48.390;10.856;2022-10-13T10:55:38;96473.56;;;22.85
50206;BMP280;36098;48.390;10.856;2022-10-13T11:03:34;96456.25;;;23.09
50206;BMP280;36098;48.390;10.856;2022-10-13T11:06:02;96452.78;;;22.98
50206;BMP280;36098;48.390;10.856;2022-10-13T11:08:49;96437.00;;;22.98
50206;BMP280;36098;48.390;10.856;2022-10-13T11:27:18;96445.63;;;22.79
50206;BMP280;36098;48.390;10.856;2022-10-13T11:40:15;96431.47;;;23.05
50206;BMP280;36098;48.390;10.856;2022-10-13T11:43:06;96425.16;;;23.01
50206;BMP280;36098;48.390;10.856;2022-10-13T11:48:41;96416.72;;;22.99
50206;BMP280;36098;48.390;10.856;2022-10-13T11:56:54;96392.22;;;22.98
50206;BMP280;36098;48.390;10.856;2022-10-13T11:59:34;96382.50;;;22.99
50206;BMP280;36098;48.390;10.856;2022-10-13T12:04:37;96386.41;;;23.01
50206;BMP280;36098;48.390;10.856;2022-10-13T12:07:05;96378.53;;;23.01
50206;BMP280;36098;48.390;10.856;2022-10-13T12:09:32;96374.06;;;23.02
50206;BMP280;36098;48.390;10.856;2022-10-13T12:12:13;96378.78;;;23.05
50206;BMP280;36098;48.390;10.856;2022-10-13T12:14:41;96370.38;;;23.08
50206;BMP280;36098;48.390;10.856;2022-10-13T12:17:28;96367.22;;;23.11
50206;BMP280;36098;48.390;10.856;2022-10-13T12:20:00;96368.56;;;23.13
50206;BMP280;36098;48.390;10.856;2022-10-13T12:22:27;96366.69;;;23.09
50206;BMP280;36098;48.390;10.856;2022-10-13T12:25:00;96360.34;;;23.10
50206;BMP280;36098;48.390;10.856;2022-10-13T12:27:28;96364.84;;;23.09
50206;BMP280;36098;48.390;10.856;2022-10-13T12:29:56;96358.00;;;23.08
50206;BMP280;36098;48.390;10.856;2022-10-13T12:32:30;96358.03;;;23.13
50206;BMP280;36098;48.390;10.856;2022-10-13T12:34:55;96349.31;;;23.03
50206;BMP280;36098;48.390;10.856;2022-10-13T12:37:28;96346.66;;;22.98
50206;BMP280;36098;48.390;10.856;2022-10-13T12:39:56;96347.75;;;23.17
50206;BMP280;36098;48.390;10.856;2022-10-13T12:42:28;96348.78;;;23.35
50206;BMP280;36098;48.390;10.856;2022-10-13T12:44:55;96345.38;;;23.25
50206;BMP280;36098;48.390;10.856;2022-10-13T12:50:27;96347.22;;;23.39
50206;BMP280;36098;48.390;10.856;2022-10-13T12:55:27;96345.66;;;23.24
50206;BMP280;36098;48.390;10.856;2022-10-13T12:57:52;96342.22;;;23.23
50206;BMP280;36098;48.390;10.856;2022-10-13T13:03:05;96337.72;;;23.48
50206;BMP280;36098;48.390;10.856;2022-10-13T13:07:56;96336.66;;;23.84
50206;BMP280;36098;48.390;10.856;2022-10-13T13:10:22;96337.97;;;23.57
50206;BMP280;36098;48.390;10.856;2022-10-13T13:12:49;96335.34;;;23.42
50206;BMP280;36098;48.390;10.856;2022-10-13T13:17:49;96334.53;;;23.07
50206;BMP280;36098;48.390;10.856;2022-10-13T13:22:44;96331.91;;;23.02
50206;BMP280;36098;48.390;10.856;2022-10-13T13:25:09;96337.19;;;23.02
50206;BMP280;36098;48.390;10.856;2022-10-13T13:27:38;96341.97;;;23.20
50206;BMP280;36098;48.390;10.856;2022-10-13T13:30:09;96330.09;;;23.37
50206;BMP280;36098;48.390;10.856;2022-10-13T13:32:35;96336.69;;;23.44
50206;BMP280;36098;48.390;10.856;2022-10-13T13:35:00;96331.88;;;23.71
50206;BMP280;36098;48.390;10.856;2022-10-13T13:37:29;96332.97;;;23.55
50206;BMP280;36098;48.390;10.856;2022-10-13T13:39:55;96335.03;;;23.73
50206;BMP280;36098;48.390;10.856;2022-10-13T13:42:20;96341.88;;;23.99
50206;BMP280;36098;48.390;10.856;2022-10-13T13:44:46;96330.84;;;23.82
50206;BMP280;36098;48.390;10.856;2022-10-13T13:47:19;96329.03;;;23.53
50206;BMP280;36098;48.390;10.856;2022-10-13T13:49:45;96322.69;;;23.59
50206;BMP280;36098;48.390;10.856;2022-10-13T13:52:11;96319.72;;;24.00
50206;BMP280;36098;48.390;10.856;2022-10-13T13:54:36;96314.38;;;24.15
50206;BMP280;36098;48.390;10.856;2022-10-13T13:57:02;96308.81;;;24.22
50206;BMP280;36098;48.390;10.856;2022-10-13T13:59:27;96322.91;;;23.97
50206;BMP280;36098;48.390;10.856;2022-10-13T14:01:53;96322.38;;;23.90
50206;BMP280;36098;48.390;10.856;2022-10-13T14:04:18;96324.47;;;23.93
50206;BMP280;36098;48.390;10.856;2022-10-13T14:06:43;96326.06;;;23.99
50206;BMP280;36098;48.390;10.856;2022-10-13T14:09:08;96319.47;;;23.97
50206;BMP280;36098;48.390;10.856;2022-10-13T14:11:34;96315.53;;;23.74
50206;BMP280;36098;48.390;10.856;2022-10-13T14:13:59;96316.63;;;23.48
50206;BMP280;36098;48.390;10.856;2022-10-13T14:16:26;96319.03;;;23.30
50206;BMP280;36098;48.390;10.856;2022-10-13T14:18:52;96313.50;;;23.17
50206;BMP280;36098;48.390;10.856;2022-10-13T14:21:19;96316.16;;;23.22
50206;BMP280;36098;48.390;10.856;2022-10-13T14:23:45;96305.06;;;23.25
50206;BMP280;36098;48.390;10.856;2022-10-13T14:26:11;96298.75;;;23.21
50206;BMP280;36098;48.390;10.856;2022-10-13T14:28:40;96295.03;;;23.31
50206;BMP280;36098;48.390;10.856;2022-10-13T14:31:06;96297.69;;;23.31
50206;BMP280;36098;48.390;10.856;2022-10-13T14:33:32;96292.69;;;23.20
50206;BMP280;36098;48.390;10.856;2022-10-13T14:35:58;96295.81;;;23.42
50206;BMP280;36098;48.390;10.856;2022-10-13T14:38:24;96287.94;;;23.37
50206;BMP280;36098;48.390;10.856;2022-10-13T14:40:49;96284.25;;;23.23
50206;BMP280;36098;48.390;10.856;2022-10-13T14:43:14;96284.50;;;23.31
50206;BMP280;36098;48.390;10.856;2022-10-13T14:45:40;96289.50;;;23.48
50206;BMP280;36098;48.390;10.856;2022-10-13T14:48:05;96286.59;;;23.44
50206;BMP280;36098;48.390;10.856;2022-10-13T14:50:30;96283.16;;;23.59
50206;BMP280;36098;48.390;10.856;2022-10-13T14:52:55;96293.91;;;23.72
50206;BMP280;36098;48.390;10.856;2022-10-13T14:55:21;96292.38;;;23.61
50206;BMP280;36098;48.390;10.856;2022-10-13T14:57:47;96300.81;;;23.53
50206;BMP280;36098;48.390;10.856;2022-10-13T15:00:12;96297.63;;;23.56
50206;BMP280;36098;48.390;10.856;2022-10-13T15:02:38;96298.16;;;23.53
50206;BMP280;36098;48.390;10.856;2022-10-13T15:05:04;96291.06;;;23.44
50206;BMP280;36098;48.390;10.856;2022-10-13T15:07:29;96297.94;;;23.35
50206;BMP280;36098;48.390;10.856;2022-10-13T15:09:54;96295.03;;;23.36
50206;BMP280;36098;48.390;10.856;2022-10-13T15:12:20;96290.81;;;23.35
50206;BMP280;36098;48.390;10.856;2022-10-13T15:14:45;96287.13;;;23.46
50206;BMP280;36098;48.390;10.856;2022-10-13T15:17:10;96295.31;;;23.40
50206;BMP280;36098;48.390;10.856;2022-10-13T15:19:35;96288.72;;;23.42
50206;BMP280;36098;48.390;10.856;2022-10-13T15:22:00;96284.22;;;23.43
50206;BMP280;36098;48.390;10.856;2022-10-13T15:24:26;96290.06;;;23.30
50206;BMP280;36098;48.390;10.856;2022-10-13T15:26:51;96285.03;;;23.33
50206;BMP280;36098;48.390;10.856;2022-10-13T15:29:17;96297.44;;;23.13
50206;BMP280;36098;48.390;10.856;2022-10-13T15:31:42;96289.81;;;23.22
50206;BMP280;36098;48.390;10.856;2022-10-13T15:34:07;96287.69;;;23.28
50206;BMP280;36098;48.390;10.856;2022-10-13T15:36:32;96288.72;;;23.13
50206;BMP280;36098;48.390;10.856;2022-10-13T15:38:58;96286.59;;;23.10
50206;BMP280;36098;48.390;10.856;2022-10-13T15:41:23;96278.72;;;23.00
50206;BMP280;36098;48.390;10.856;2022-10-13T15:43:50;96283.47;;;22.98